Time;durP1;ratioP1;P1;durP2;ratioP2;P2;SDS_P1;SDS_P2;PMS_P1;PMS_P2;Temp;Humidity;BMP_temperature;BMP_pressure;BME280_temperature;BME280_humidity;BME280_pressure;Samples;Min_cycle;Max_cycle;Signal;HPM_P1;HPM_P2
2023/09/21 00:01:03;;;;;;;2.50;0.98;;;22.40;52.10;;;;;;4994830;28;20203;-83
2023/09/21 00:03:36;;;;;;;3.83;0.60;;;22.40;52.00;;;;;;4997033;28;21213;-82
2023/09/21 00:06:09;;;;;;;3.53;0.95;;;22.50;52.20;;;;;;5008911;28;20198;-82
2023/09/21 00:08:40;;;;;;;3.03;0.98;;;22.60;52.10;;;;;;5008287;28;20190;-83
2023/09/21 00:11:11;;;;;;;1.92;0.70;;;22.70;52.30;;;;;;5008671;28;20205;-83
2023/09/21 00:13:44;;;;;;;3.35;0.80;;;22.90;52.10;;;;;;5009258;28;20212;-83
2023/09/21 00:16:18;;;;;;;1.88;0.80;;;23.00;52.20;;;;;;5008242;28;20216;-83
2023/09/21 00:18:50;;;;;;;2.42;0.90;;;23.00;51.90;;;;;;5009793;28;20360;-83
2023/09/21 00:21:21;;;;;;;1.65;0.80;;;23.00;51.40;;;;;;5009925;28;20256;-83
2023/09/21 00:23:53;;;;;;;2.40;0.88;;;23.00;51.00;;;;;;5005403;28;20206;-84
2023/09/21 00:26:27;;;;;;;4.03;1.27;;;23.20;50.70;;;;;;5009874;28;20189;-84
2023/09/21 00:29:02;;;;;;;2.63;0.63;;;23.20;50.10;;;;;;5009414;28;20794;-82
2023/09/21 00:31:33;;;;;;;5.40;0.95;;;23.10;50.60;;;;;;5010305;28;20253;-83
2023/09/21 00:34:06;;;;;;;2.03;0.80;;;23.20;51.50;;;;;;5010003;28;20202;-82
2023/09/21 00:36:42;;;;;;;3.38;1.00;;;23.30;49.30;;;;;;5011057;28;20194;-83
2023/09/21 00:39:15;;;;;;;2.45;1.23;;;23.40;48.40;;;;;;4999596;28;20262;-82
2023/09/21 00:41:45;;;;;;;2.63;0.90;;;23.40;47.50;;;;;;5001431;28;20201;-83
2023/09/21 00:44:16;;;;;;;3.55;0.77;;;23.70;48.00;;;;;;4994991;28;20288;-83
2023/09/21 00:46:48;;;;;;;1.73;0.80;;;23.90;47.10;;;;;;4991234;28;20187;-82
2023/09/21 00:49:21;;;;;;;3.83;0.90;;;23.80;46.40;;;;;;4997542;28;20190;-83
2023/09/21 00:51:55;;;;;;;2.83;0.90;;;23.60;46.00;;;;;;5012984;28;20190;-84
2023/09/21 00:54:27;;;;;;;3.58;1.27;;;23.70;47.10;;;;;;4993285;28;20206;-84
2023/09/21 00:56:59;;;;;;;3.00;0.80;;;24.00;48.30;;;;;;4992801;28;20199;-81
2023/09/21 00:59:35;;;;;;;8.00;1.42;;;24.20;52.40;;;;;;4992753;28;20437;-83
2023/09/21 01:02:06;;;;;;;6.80;1.08;;;24.40;53.20;;;;;;5004137;28;20241;-83
2023/09/21 01:04:39;;;;;;;3.78;1.00;;;24.50;53.40;;;;;;5008220;28;20285;-84
2023/09/21 01:07:17;;;;;;;6.80;1.60;;;24.40;54.80;;;;;;4984598;28;20202;-84
2023/09/21 01:09:48;;;;;;;5.75;1.38;;;24.20;61.50;;;;;;4974284;28;20789;-84
2023/09/21 01:12:20;;;;;;;6.85;1.23;;;24.10;66.60;;;;;;4973924;28;20199;-83
2023/09/21 01:15:05;;;;;;;4.35;1.23;;;24.00;72.20;;;;;;4985009;28;20610;-84
2023/09/21 01:17:39;;;;;;;6.63;1.40;;;24.00;74.30;;;;;;5010428;28;20248;-83
2023/09/21 01:20:22;;;;;;;8.07;1.33;;;24.00;73.90;;;;;;5012227;28;20664;-84
2023/09/21 01:23:11;;;;;;;6.28;1.33;;;23.80;73.50;;;;;;5004054;28;20199;-84
2023/09/21 01:25:45;;;;;;;4.93;1.27;;;23.80;71.70;;;;;;4993231;28;20232;-84
2023/09/21 01:28:19;;;;;;;4.85;1.35;;;23.90;72.70;;;;;;4993273;28;20203;-85
2023/09/21 01:30:51;;;;;;;4.07;1.08;;;24.00;72.30;;;;;;4992164;28;20249;-84
2023/09/21 01:33:23;;;;;;;2.90;1.08;;;24.10;68.70;;;;;;4993277;28;20198;-83
2023/09/21 01:35:53;;;;;;;4.05;1.00;;;24.10;66.10;;;;;;4993229;28;20197;-84
2023/09/21 01:38:25;;;;;;;5.63;1.30;;;24.10;64.80;;;;;;5003981;28;20230;-84
2023/09/21 01:40:59;;;;;;;6.60;1.58;;;24.10;72.00;;;;;;5013874;28;20846;-84
2023/09/21 01:43:29;;;;;;;4.72;1.23;;;24.10;78.90;;;;;;5014672;28;20891;-84
2023/09/21 01:46:01;;;;;;;4.85;1.10;;;24.10;78.30;;;;;;4999391;28;20233;-83
2023/09/21 01:48:32;;;;;;;3.72;1.20;;;23.90;74.90;;;;;;4992802;28;20261;-81
2023/09/21 01:51:03;;;;;;;6.40;1.17;;;23.90;75.20;;;;;;5011183;28;20260;-82
2023/09/21 01:53:34;;;;;;;2.47;0.90;;;23.70;79.20;;;;;;5011621;28;20764;-81
2023/09/21 01:56:07;;;;;;;6.35;1.10;;;23.70;83.20;;;;;;5011181;28;20673;-81
2023/09/21 01:58:38;;;;;;;3.17;1.00;;;23.80;85.10;;;;;;4993867;28;20578;-83
2023/09/21 02:01:09;;;;;;;6.47;1.17;;;23.70;89.50;;;;;;4992863;28;20187;-84
2023/09/21 02:03:40;;;;;;;5.85;1.25;;;23.90;92.10;;;;;;5011130;28;20193;-84
2023/09/21 02:06:11;;;;;;;5.35;1.10;;;23.90;94.00;;;;;;5005892;28;20228;-90
2023/09/21 02:08:42;;;;;;;4.13;1.10;;;24.00;95.80;;;;;;5010687;28;20198;-84
2023/09/21 02:11:14;;;;;;;3.55;1.20;;;24.10;96.80;;;;;;5031474;28;20247;-86
2023/09/21 02:13:45;;;;;;;7.80;1.35;;;24.10;97.60;;;;;;5014303;28;20206;-86
2023/09/21 02:16:16;;;;;;;3.85;1.15;;;24.30;97.70;;;;;;5011939;28;20298;-85
2023/09/21 02:18:47;;;;;;;6.72;1.50;;;24.30;96.60;;;;;;5012201;28;20225;-86
2023/09/21 02:21:19;;;;;;;4.18;1.27;;;24.30;95.10;;;;;;5012760;28;20636;-86
2023/09/21 02:23:50;;;;;;;5.00;2.00;;;24.30;94.00;;;;;;5011074;28;20205;-85
2023/09/21 02:26:23;;;;;;;3.60;1.10;;;24.10;95.30;;;;;;5016353;28;20720;-86
2023/09/21 02:28:54;;;;;;;6.30;1.50;;;24.20;94.60;;;;;;5031631;28;20687;-85
2023/09/21 02:31:26;;;;;;;5.78;1.77;;;24.10;94.70;;;;;;5031227;28;20207;-84
2023/09/21 02:34:00;;;;;;;6.43;1.40;;;24.10;93.10;;;;;;5017167;28;20204;-85
2023/09/21 02:36:31;;;;;;;2.30;1.15;;;24.30;92.20;;;;;;5011530;28;20569;-88
2023/09/21 02:39:02;;;;;;;7.10;1.73;;;24.40;94.10;;;;;;5013796;28;20273;-86
2023/09/21 02:41:35;;;;;;;8.45;1.42;;;24.50;94.40;;;;;;5016465;28;20208;-85
2023/09/21 02:44:07;;;;;;;5.95;1.50;;;24.50;92.80;;;;;;5028501;28;20201;-84
2023/09/21 02:46:38;;;;;;;5.93;1.20;;;24.60;94.80;;;;;;5031842;28;20698;-85
2023/09/21 02:49:09;;;;;;;4.43;1.48;;;24.50;93.80;;;;;;5023228;28;20653;-86
2023/09/21 02:51:40;;;;;;;11.18;1.83;;;24.50;91.50;;;;;;5011976;28;20308;-85
2023/09/21 02:54:11;;;;;;;5.38;1.60;;;24.50;90.50;;;;;;5010729;28;20256;-84
2023/09/21 02:56:44;;;;;;;7.30;1.40;;;24.70;92.50;;;;;;5011519;28;20249;-83
2023/09/21 02:59:14;;;;;;;6.00;1.50;;;24.70;92.50;;;;;;5011366;28;20597;-84
2023/09/21 03:01:45;;;;;;;4.18;1.38;;;24.80;93.00;;;;;;5011867;28;20724;-85
2023/09/21 03:04:16;;;;;;;7.57;1.60;;;25.00;93.20;;;;;;5010564;28;20271;-84
2023/09/21 03:06:47;;;;;;;9.65;1.75;;;24.90;93.00;;;;;;5008805;28;20229;-84
2023/09/21 03:09:18;;;;;;;6.57;1.70;;;25.20;93.10;;;;;;5010281;28;20197;-84
2023/09/21 03:11:50;;;;;;;7.55;1.60;;;25.30;91.70;;;;;;5010925;28;20202;-85
2023/09/21 03:14:22;;;;;;;5.53;1.35;;;25.20;90.60;;;;;;5011192;28;20189;-84
2023/09/21 03:16:52;;;;;;;9.35;1.63;;;25.30;91.00;;;;;;5011365;28;20745;-84
2023/09/21 03:19:24;;;;;;;7.18;1.60;;;25.10;91.60;;;;;;5030730;28;20228;-84
2023/09/21 03:21:56;;;;;;;5.00;1.38;;;25.00;91.70;;;;;;5029169;28;20224;-83
2023/09/21 03:24:26;;;;;;;7.47;1.40;;;24.70;93.10;;;;;;5008759;28;20640;-84
2023/09/21 03:26:59;;;;;;;5.53;1.60;;;24.30;92.30;;;;;;5010854;28;20656;-84
2023/09/21 03:29:30;;;;;;;3.67;1.35;;;24.50;93.40;;;;;;5012249;28;20202;-85
2023/09/21 03:32:00;;;;;;;5.95;1.67;;;24.40;93.80;;;;;;5010794;28;20197;-83
2023/09/21 03:34:31;;;;;;;7.82;1.77;;;24.20;93.80;;;;;;5011393;28;20208;-84
2023/09/21 03:37:02;;;;;;;6.72;1.58;;;24.30;94.40;;;;;;5005986;28;20198;-84
2023/09/21 03:39:32;;;;;;;6.75;1.90;;;24.50;94.30;;;;;;5008690;28;20206;-83
2023/09/21 03:42:06;;;;;;;10.60;1.75;;;24.70;93.80;;;;;;5010959;28;20289;-84
2023/09/21 03:44:37;;;;;;;5.78;1.83;;;24.70;93.50;;;;;;5012116;28;20198;-84
2023/09/21 03:47:11;;;;;;;6.53;1.90;;;24.60;93.70;;;;;;5013135;28;20216;-84
2023/09/21 03:49:41;;;;;;;6.70;1.40;;;24.70;93.20;;;;;;5012310;28;20186;-84
2023/09/21 03:52:15;;;;;;;3.58;1.30;;;24.60;92.60;;;;;;5011423;28;20198;-84
2023/09/21 03:54:47;;;;;;;5.20;1.80;;;24.40;92.50;;;;;;5009604;28;20624;-84
2023/09/21 03:57:19;;;;;;;9.70;1.77;;;24.50;92.30;;;;;;5010752;28;20205;-84
2023/09/21 03:59:50;;;;;;;5.93;1.65;;;24.30;93.10;;;;;;5011105;28;20198;-83
2023/09/21 04:02:22;;;;;;;5.78;1.50;;;24.10;93.90;;;;;;5008044;28;20212;-84
2023/09/21 04:04:55;;;;;;;5.22;1.40;;;23.80;94.30;;;;;;4991101;28;20291;-84
2023/09/21 04:07:26;;;;;;;5.32;1.48;;;23.80;93.80;;;;;;4992670;28;20191;-84
2023/09/21 04:09:57;;;;;;;9.65;1.60;;;23.70;93.90;;;;;;5030599;28;20198;-83
2023/09/21 04:12:29;;;;;;;7.88;1.58;;;23.80;94.30;;;;;;5034336;28;20197;-83
2023/09/21 04:15:00;;;;;;;4.50;1.27;;;23.70;94.00;;;;;;5034071;28;20197;-84
2023/09/21 04:17:32;;;;;;;5.13;1.13;;;23.60;94.10;;;;;;5034080;28;20208;-84
2023/09/21 04:20:09;;;;;;;5.25;1.48;;;23.60;93.70;;;;;;4994576;28;20236;-84
2023/09/21 04:22:40;;;;;;;5.72;1.40;;;23.70;93.80;;;;;;4998057;28;20236;-82
2023/09/21 04:25:13;;;;;;;7.05;1.75;;;23.70;93.40;;;;;;5017336;28;20264;-83
2023/09/21 04:27:46;;;;;;;4.50;1.42;;;23.70;93.60;;;;;;5033792;28;20645;-83
2023/09/21 04:30:21;;;;;;;4.18;1.40;;;23.60;93.30;;;;;;5035340;28;20190;-84
2023/09/21 04:32:53;;;;;;;8.70;2.20;;;23.40;93.30;;;;;;5027496;28;20201;-84
2023/09/21 04:35:24;;;;;;;5.43;1.60;;;23.30;94.10;;;;;;5014954;28;20202;-83
2023/09/21 04:37:56;;;;;;;5.07;1.45;;;23.10;94.80;;;;;;5012882;28;20229;-84
2023/09/21 04:40:27;;;;;;;5.75;1.40;;;23.30;94.60;;;;;;5014647;28;20697;-83
2023/09/21 04:43:02;;;;;;;7.07;1.55;;;23.30;94.70;;;;;;5015625;28;20248;-83
2023/09/21 04:45:33;;;;;;;7.22;1.77;;;23.10;95.10;;;;;;5015086;28;20235;-83
2023/09/21 04:48:04;;;;;;;7.53;1.52;;;22.90;96.00;;;;;;5013421;28;20280;-82
2023/09/21 04:50:35;;;;;;;7.75;1.67;;;23.00;96.30;;;;;;4997348;28;20249;-83
2023/09/21 04:53:05;;;;;;;7.78;1.40;;;23.00;95.20;;;;;;5013062;28;20252;-83
2023/09/21 04:55:36;;;;;;;5.65;1.45;;;23.10;95.10;;;;;;5015964;28;20633;-84
2023/09/21 04:58:10;;;;;;;7.28;1.23;;;23.10;95.00;;;;;;5011836;28;20245;-84
2023/09/21 05:00:41;;;;;;;7.20;1.40;;;23.00;95.10;;;;;;5011453;28;20213;-84
2023/09/21 05:03:15;;;;;;;6.80;1.30;;;22.70;95.20;;;;;;5014586;28;20201;-84
2023/09/21 05:05:47;;;;;;;7.28;1.42;;;22.60;95.40;;;;;;4996720;28;20215;-85
2023/09/21 05:08:18;;;;;;;5.88;1.38;;;22.70;95.80;;;;;;5013703;28;20224;-84
2023/09/21 05:10:51;;;;;;;6.07;1.55;;;22.70;95.80;;;;;;5012234;28;20193;-86
2023/09/21 05:13:23;;;;;;;4.40;1.20;;;22.70;95.00;;;;;;4995138;28;20198;-85
2023/09/21 05:15:54;;;;;;;7.82;1.10;;;22.70;94.30;;;;;;4994479;28;20273;-86
2023/09/21 05:18:25;;;;;;;4.80;1.17;;;22.80;94.80;;;;;;4993939;28;20210;-85
2023/09/21 05:20:55;;;;;;;7.60;1.08;;;22.80;94.40;;;;;;5011712;28;20187;-86
2023/09/21 05:23:26;;;;;;;6.38;1.60;;;22.50;95.50;;;;;;5005254;28;20186;-86
2023/09/21 05:25:57;;;;;;;3.47;1.10;;;22.50;95.50;;;;;;5005134;28;20222;-87
2023/09/21 05:28:32;;;;;;;5.70;1.00;;;22.60;95.80;;;;;;4996587;28;20637;-87
2023/09/21 05:31:05;;;;;;;8.43;1.20;;;22.70;94.90;;;;;;5013172;28;20661;-86
2023/09/21 05:33:35;;;;;;;4.60;1.15;;;22.50;94.90;;;;;;5014325;28;20190;-86
2023/09/21 05:36:07;;;;;;;8.35;1.30;;;22.30;96.10;;;;;;5014147;28;20198;-86
2023/09/21 05:38:38;;;;;;;4.30;1.25;;;22.10;95.90;;;;;;5007929;28;20221;-86
2023/09/21 05:41:17;;;;;;;6.78;1.60;;;21.90;96.60;;;;;;5012850;28;20202;-86
2023/09/21 05:43:50;;;;;;;5.38;1.27;;;21.80;96.80;;;;;;5011362;28;20194;-84
2023/09/21 05:46:21;;;;;;;4.40;1.10;;;21.70;98.10;;;;;;5011131;28;20220;-84
2023/09/21 05:48:52;;;;;;;6.50;1.55;;;21.70;98.20;;;;;;5017386;28;20186;-85
2023/09/21 05:51:23;;;;;;;8.13;1.63;;;21.70;98.10;;;;;;5009520;28;20202;-85
2023/09/21 05:53:54;;;;;;;8.45;1.58;;;21.80;98.10;;;;;;5010537;28;20190;-86
2023/09/21 05:56:27;;;;;;;5.75;1.15;;;21.70;97.90;;;;;;5014901;28;20198;-84
2023/09/21 05:58:59;;;;;;;7.10;1.10;;;21.50;96.80;;;;;;5010264;28;20186;-86
2023/09/21 06:01:31;;;;;;;6.90;1.38;;;21.40;98.00;;;;;;4998413;28;20242;-86
2023/09/21 06:04:02;;;;;;;5.20;1.10;;;21.20;98.90;;;;;;4994838;28;20191;-84
2023/09/21 06:06:34;;;;;;;5.88;1.10;;;21.00;99.50;;;;;;5004497;28;20224;-86
2023/09/21 06:09:05;;;;;;;6.15;1.17;;;21.00;99.40;;;;;;5011731;28;20198;-85
2023/09/21 06:11:36;;;;;;;9.32;1.58;;;20.90;99.90;;;;;;5012704;28;20190;-85
2023/09/21 06:14:08;;;;;;;3.10;1.05;;;20.90;99.90;;;;;;5016627;28;20205;-86
2023/09/21 06:16:41;;;;;;;8.38;1.65;;;20.90;99.80;;;;;;5013504;28;20683;-84
2023/09/21 06:19:12;;;;;;;7.28;1.20;;;21.00;99.30;;;;;;5012052;28;20218;-84
2023/09/21 06:21:45;;;;;;;7.15;1.30;;;21.00;99.50;;;;;;5012461;28;20198;-84
2023/09/21 06:24:17;;;;;;;6.32;1.42;;;20.90;99.80;;;;;;5014713;28;20681;-84
2023/09/21 06:26:48;;;;;;;6.40;1.20;;;20.80;99.90;;;;;;5022442;28;20206;-85
2023/09/21 06:29:22;;;;;;;8.10;1.90;;;21.00;99.90;;;;;;5009271;28;20210;-84
2023/09/21 06:31:54;;;;;;;5.07;1.20;;;21.00;99.90;;;;;;5007945;28;20193;-85
2023/09/21 06:34:25;;;;;;;7.53;1.20;;;21.30;99.30;;;;;;5011390;28;20193;-85
2023/09/21 06:36:56;;;;;;;5.97;1.48;;;21.40;99.00;;;;;;5008730;28;20209;-83
2023/09/21 06:39:27;;;;;;;7.30;1.52;;;21.40;97.90;;;;;;5013064;28;20572;-86
2023/09/21 06:41:57;;;;;;;6.90;1.30;;;21.50;96.50;;;;;;5013541;28;20198;-84
2023/09/21 06:44:31;;;;;;;6.35;1.42;;;21.20;95.90;;;;;;5018200;28;20197;-85
2023/09/21 06:47:02;;;;;;;8.30;1.70;;;21.20;96.30;;;;;;5034828;28;20236;-85
2023/09/21 06:49:34;;;;;;;7.72;1.52;;;21.10;96.70;;;;;;5024355;28;20232;-86
2023/09/21 06:52:06;;;;;;;5.80;1.40;;;20.80;97.70;;;;;;5008393;28;20198;-85
2023/09/21 06:54:38;;;;;;;5.75;1.50;;;20.50;98.00;;;;;;5014264;28;20259;-85
2023/09/21 06:57:09;;;;;;;8.35;1.73;;;20.40;99.10;;;;;;5013739;28;20225;-84
2023/09/21 06:59:42;;;;;;;6.90;1.05;;;20.30;99.10;;;;;;5025302;28;20634;-85
2023/09/21 07:02:12;;;;;;;8.05;1.30;;;20.20;99.40;;;;;;5013270;28;20205;-85
2023/09/21 07:04:43;;;;;;;5.97;1.50;;;20.10;98.90;;;;;;5012080;28;20208;-84
2023/09/21 07:07:15;;;;;;;6.63;1.52;;;20.10;99.50;;;;;;5012291;28;20591;-85
2023/09/21 07:09:46;;;;;;;9.23;1.60;;;20.00;99.30;;;;;;5011763;28;20210;-81
2023/09/21 07:12:17;;;;;;;7.15;1.20;;;20.00;98.60;;;;;;5010506;28;20197;-85
2023/09/21 07:14:50;;;;;;;4.88;1.17;;;20.00;98.80;;;;;;5011304;28;20198;-85
2023/09/21 07:17:22;;;;;;;4.25;1.15;;;19.80;98.00;;;;;;5031697;28;20185;-83
2023/09/21 07:19:52;;;;;;;4.53;1.40;;;19.70;98.50;;;;;;5031458;28;20201;-82
2023/09/21 07:22:23;;;;;;;5.03;0.90;;;19.60;99.10;;;;;;5013748;28;20585;-85
2023/09/21 07:24:54;;;;;;;4.28;1.42;;;19.70;99.80;;;;;;5008848;28;20198;-84
2023/09/21 07:27:28;;;;;;;6.72;1.20;;;19.60;99.40;;;;;;5016701;28;20222;-84
2023/09/21 07:30:00;;;;;;;8.93;1.40;;;19.60;98.80;;;;;;5011700;28;20190;-86
2023/09/21 07:32:32;;;;;;;4.85;1.20;;;19.50;98.60;;;;;;5011919;28;20238;-84
2023/09/21 07:35:04;;;;;;;5.45;1.20;;;19.40;99.30;;;;;;5011209;28;20266;-84
2023/09/21 07:37:35;;;;;;;6.78;1.50;;;19.40;99.90;;;;;;5010045;28;20241;-84
2023/09/21 07:40:06;;;;;;;5.03;1.10;;;19.30;99.90;;;;;;5009683;28;20216;-84
2023/09/21 07:42:37;;;;;;;6.25;1.33;;;19.30;99.90;;;;;;5009637;28;20560;-84
2023/09/21 07:45:11;;;;;;;8.50;1.65;;;19.30;99.90;;;;;;5018135;28;20692;-84
2023/09/21 07:47:42;;;;;;;5.78;1.33;;;19.30;99.90;;;;;;5019440;28;20220;-82
2023/09/21 07:50:13;;;;;;;7.82;2.17;;;19.40;99.90;;;;;;5016653;28;20222;-75
2023/09/21 07:52:45;;;;;;;11.95;2.35;;;19.40;99.90;;;;;;5022102;28;20198;-82
2023/09/21 07:55:16;;;;;;;4.80;1.80;;;19.50;99.90;;;;;;5014532;28;20202;-82
2023/09/21 07:57:47;;;;;;;5.32;1.20;;;19.40;99.90;;;;;;5003471;28;20233;-82
2023/09/21 08:00:21;;;;;;;8.23;1.60;;;19.40;99.90;;;;;;5027843;28;20198;-82
2023/09/21 08:02:53;;;;;;;5.65;1.95;;;19.30;99.90;;;;;;5013192;28;20202;-81
2023/09/21 08:05:23;;;;;;;7.82;2.50;;;19.30;99.60;;;;;;5011202;28;20668;-80
2023/09/21 08:07:54;;;;;;;7.68;3.15;;;19.20;99.80;;;;;;5022340;28;20224;-80
2023/09/21 08:10:26;;;;;;;6.35;2.58;;;19.30;99.80;;;;;;4994619;28;20203;-81
2023/09/21 08:12:57;;;;;;;5.28;2.28;;;19.30;99.40;;;;;;5008671;28;20226;-81
2023/09/21 08:15:30;;;;;;;6.07;1.83;;;19.30;99.40;;;;;;5014098;28;20285;-81
2023/09/21 08:18:01;;;;;;;3.95;1.10;;;19.30;99.50;;;;;;5001075;28;20209;-81
2023/09/21 08:20:32;;;;;;;5.07;1.50;;;19.40;99.40;;;;;;5004036;28;20232;-82
2023/09/21 08:23:03;;;;;;;6.47;1.90;;;19.40;99.60;;;;;;5028657;28;20281;-81
2023/09/21 08:25:35;;;;;;;7.10;1.83;;;19.40;99.80;;;;;;5013608;28;20673;-82
2023/09/21 08:28:07;;;;;;;6.65;1.63;;;19.30;99.90;;;;;;5008025;28;20227;-81
2023/09/21 08:30:40;;;;;;;10.00;3.15;;;19.30;99.80;;;;;;5023293;28;20239;-81
2023/09/21 08:33:11;;;;;;;7.25;2.55;;;19.20;99.90;;;;;;5018926;28;20692;-80
2023/09/21 08:35:43;;;;;;;10.50;3.00;;;19.20;99.90;;;;;;5004589;28;20214;-82
2023/09/21 08:38:14;;;;;;;7.88;2.10;;;19.20;99.90;;;;;;5020107;28;20787;-81
2023/09/21 08:40:46;;;;;;;8.43;1.77;;;19.10;99.90;;;;;;5015583;28;20666;-81
2023/09/21 08:43:24;;;;;;;5.65;1.95;;;19.00;99.90;;;;;;5006916;28;20198;-81
2023/09/21 08:45:58;;;;;;;9.48;4.00;;;19.00;99.90;;;;;;5008211;28;20210;-81
2023/09/21 08:48:29;;;;;;;10.10;2.20;;;19.10;99.90;;;;;;5012996;28;20313;-81
2023/09/21 08:51:01;;;;;;;11.10;1.73;;;19.00;99.90;;;;;;4993825;28;20736;-81
2023/09/21 08:53:33;;;;;;;6.20;1.52;;;19.00;99.90;;;;;;5001221;28;20599;-81
2023/09/21 08:56:05;;;;;;;8.57;1.73;;;18.90;99.90;;;;;;5012933;28;20209;-82
2023/09/21 08:58:40;;;;;;;8.88;1.75;;;19.00;99.90;;;;;;5012615;28;20587;-81
2023/09/21 09:01:13;;;;;;;5.50;1.52;;;19.10;99.90;;;;;;5009815;28;20191;-82
2023/09/21 09:03:44;;;;;;;9.45;1.60;;;19.20;99.90;;;;;;4993750;28;20202;-81
2023/09/21 09:06:15;;;;;;;6.43;1.38;;;19.20;99.90;;;;;;4994808;28;20198;-81
2023/09/21 09:08:49;;;;;;;6.15;2.17;;;19.20;99.90;;;;;;5002664;28;20223;-81
2023/09/21 09:11:40;;;;;;;6.63;2.22;;;19.20;99.90;;;;;;5026057;28;20201;-80
2023/09/21 09:14:16;;;;;;;11.13;3.60;;;19.10;99.90;;;;;;5031257;28;20201;-80
2023/09/21 09:16:49;;;;;;;4.45;1.80;;;19.10;99.90;;;;;;5033168;28;20294;-81
2023/09/21 09:19:20;;;;;;;6.97;2.72;;;19.10;99.90;;;;;;5020603;28;20202;-81
2023/09/21 09:21:52;;;;;;;4.13;1.77;;;19.10;99.90;;;;;;5012711;28;20249;-81
2023/09/21 09:24:28;;;;;;;5.32;2.30;;;19.00;99.90;;;;;;5010984;28;20241;-81
2023/09/21 09:26:59;;;;;;;6.97;2.35;;;19.10;99.90;;;;;;5012676;28;20222;-81
2023/09/21 09:29:30;;;;;;;10.25;3.50;;;19.00;99.90;;;;;;5012584;28;20634;-81
2023/09/21 09:32:06;;;;;;;6.20;2.15;;;19.00;99.90;;;;;;5020109;28;20619;-81
2023/09/21 09:34:39;;;;;;;5.32;1.80;;;19.00;99.90;;;;;;5008547;28;20194;-82
2023/09/21 09:37:15;;;;;;;6.03;1.77;;;19.00;99.90;;;;;;5025211;28;20305;-82
2023/09/21 09:39:47;;;;;;;8.20;1.50;;;19.10;99.90;;;;;;5012103;28;20248;-81
2023/09/21 09:42:18;;;;;;;5.85;1.70;;;19.10;99.90;;;;;;5012763;28;20202;-81
2023/09/21 09:44:50;;;;;;;7.07;3.22;;;19.00;99.90;;;;;;5004026;28;20566;-82
2023/09/21 09:47:27;;;;;;;6.20;2.20;;;19.00;99.90;;;;;;4993317;28;20277;-82
2023/09/21 09:49:58;;;;;;;7.72;1.90;;;19.10;99.90;;;;;;5011383;28;20222;-82
2023/09/21 09:52:29;;;;;;;8.48;1.90;;;19.10;99.90;;;;;;5012376;28;20210;-82
2023/09/21 09:55:00;;;;;;;8.55;1.98;;;19.20;99.90;;;;;;5010208;28;20194;-81
2023/09/21 09:57:32;;;;;;;7.68;2.40;;;19.20;99.90;;;;;;5011804;28;20198;-82
2023/09/21 10:00:15;;;;;;;7.45;2.40;;;19.20;99.90;;;;;;5012132;28;20194;-82
2023/09/21 10:02:49;;;;;;;7.53;3.17;;;19.10;99.90;;;;;;5012660;28;20200;-82
2023/09/21 10:05:21;;;;;;;6.00;2.97;;;19.00;99.90;;;;;;5014733;28;20221;-81
2023/09/21 10:07:54;;;;;;;7.85;1.90;;;19.00;99.90;;;;;;5014298;28;20751;-81
2023/09/21 10:10:27;;;;;;;8.07;1.95;;;19.00;99.90;;;;;;5016652;28;20620;-82
2023/09/21 10:12:59;;;;;;;7.55;2.25;;;18.90;99.90;;;;;;5018862;28;20210;-81
2023/09/21 10:15:33;;;;;;;6.75;2.03;;;19.00;99.90;;;;;;5010090;28;20197;-81
2023/09/21 10:18:07;;;;;;;10.75;1.85;;;19.10;99.90;;;;;;5012026;28;20197;-82
2023/09/21 10:20:39;;;;;;;5.28;1.60;;;19.00;99.90;;;;;;5012134;28;20260;-83
2023/09/21 10:23:11;;;;;;;6.10;1.70;;;18.90;99.90;;;;;;5011733;28;20195;-82
2023/09/21 10:25:43;;;;;;;6.40;1.80;;;18.90;99.90;;;;;;5013141;28;20213;-86
2023/09/21 10:28:39;;;;;;;8.05;1.88;;;18.90;99.90;;;;;;5014234;28;20230;-82
2023/09/21 10:31:29;;;;;;;6.97;1.85;;;18.80;99.90;;;;;;5007126;28;20202;-82
2023/09/21 10:34:12;;;;;;;7.90;1.48;;;18.70;99.90;;;;;;5014252;28;20204;-84
2023/09/21 10:36:49;;;;;;;9.45;1.77;;;18.80;99.90;;;;;;5012450;28;20197;-81
2023/09/21 10:39:28;;;;;;;5.50;1.30;;;18.70;99.90;;;;;;5002979;28;20204;-82
2023/09/21 10:42:19;;;;;;;10.27;2.20;;;18.70;99.90;;;;;;5012819;28;20286;-82
2023/09/21 10:45:04;;;;;;;9.50;1.90;;;18.80;99.90;;;;;;4994747;28;20204;-82
2023/09/21 10:47:52;;;;;;;6.70;1.73;;;18.80;99.90;;;;;;4995027;28;20222;-82
2023/09/21 10:50:25;;;;;;;4.22;1.25;;;18.80;99.90;;;;;;5014259;28;20667;-83
2023/09/21 10:52:58;;;;;;;3.00;1.23;;;18.90;99.90;;;;;;5010056;28;20616;-82
2023/09/21 10:55:28;;;;;;;7.32;1.98;;;19.00;99.90;;;;;;5017310;28;20677;-84
2023/09/21 10:58:00;;;;;;;5.43;1.38;;;18.90;99.90;;;;;;5013098;28;20205;-82
2023/09/21 11:00:31;;;;;;;5.70;1.38;;;18.80;99.90;;;;;;4991506;28;20666;-82
2023/09/21 11:03:03;;;;;;;6.63;1.40;;;18.80;99.90;;;;;;4991728;28;20203;-82
2023/09/21 11:05:35;;;;;;;6.85;1.67;;;18.80;99.90;;;;;;5009697;28;20224;-82
2023/09/21 11:08:07;;;;;;;6.60;1.40;;;18.70;99.90;;;;;;5004835;28;20226;-82
2023/09/21 11:10:39;;;;;;;6.25;1.17;;;18.70;99.90;;;;;;5003588;28;20374;-81
2023/09/21 11:13:11;;;;;;;8.20;1.38;;;18.50;99.90;;;;;;5003357;28;20200;-82
2023/09/21 11:15:42;;;;;;;5.65;1.48;;;18.50;99.90;;;;;;5015886;28;20259;-84
2023/09/21 11:18:13;;;;;;;4.82;1.40;;;18.30;99.90;;;;;;5012667;28;20200;-81
2023/09/21 11:20:47;;;;;;;6.70;1.33;;;18.20;99.90;;;;;;5014176;28;20213;-81
2023/09/21 11:23:21;;;;;;;4.75;1.30;;;18.10;99.90;;;;;;5012447;28;20193;-81
2023/09/21 11:25:51;;;;;;;9.48;1.80;;;18.10;99.90;;;;;;5017837;28;20233;-81
2023/09/21 11:28:23;;;;;;;9.60;3.67;;;18.00;99.90;;;;;;5009934;28;20573;-81
2023/09/21 11:30:56;;;;;;;6.55;1.40;;;18.00;99.90;;;;;;5013413;28;20206;-82
2023/09/21 11:33:27;;;;;;;5.57;1.40;;;18.10;99.90;;;;;;5013202;28;20193;-80
2023/09/21 11:36:00;;;;;;;5.75;1.40;;;18.10;99.90;;;;;;5008651;28;20631;-82
2023/09/21 11:38:33;;;;;;;3.50;1.20;;;18.10;99.90;;;;;;5014264;28;20230;-81
2023/09/21 11:41:06;;;;;;;5.97;1.30;;;18.10;99.90;;;;;;5009654;28;20188;-83
2023/09/21 11:43:36;;;;;;;5.57;1.60;;;18.10;99.90;;;;;;5010958;28;20190;-82
2023/09/21 11:46:08;;;;;;;7.65;1.80;;;18.10;99.90;;;;;;5010682;28;20186;-83
2023/09/21 11:48:39;;;;;;;5.97;1.30;;;18.20;99.90;;;;;;5017786;28;20320;-82
2023/09/21 11:51:12;;;;;;;9.60;2.42;;;18.20;99.90;;;;;;5011746;28;20572;-83
2023/09/21 11:53:44;;;;;;;4.80;1.30;;;18.20;99.90;;;;;;5011654;28;20209;-83
2023/09/21 11:56:17;;;;;;;5.35;1.20;;;18.30;99.90;;;;;;5011255;28;20341;-82
2023/09/21 11:58:48;;;;;;;11.18;1.63;;;18.30;99.90;;;;;;5004314;28;20209;-81
2023/09/21 12:01:22;;;;;;;9.38;1.55;;;18.40;99.90;;;;;;4997557;28;20224;-82
2023/09/21 12:03:53;;;;;;;5.53;1.42;;;18.40;99.90;;;;;;5006708;28;20212;-83
2023/09/21 12:06:27;;;;;;;5.15;1.73;;;18.40;99.90;;;;;;5011963;28;20277;-82
2023/09/21 12:08:58;;;;;;;8.60;1.50;;;18.40;99.90;;;;;;5009862;28;20276;-83
2023/09/21 12:11:29;;;;;;;5.10;1.20;;;18.30;99.90;;;;;;5008294;28;20190;-82
2023/09/21 12:14:04;;;;;;;9.57;1.20;;;18.30;99.90;;;;;;5031271;28;20228;-83
2023/09/21 12:16:35;;;;;;;5.80;1.13;;;18.20;99.90;;;;;;5011285;28;20248;-82
2023/09/21 12:19:08;;;;;;;7.60;1.02;;;18.20;99.90;;;;;;5012453;28;20724;-82
2023/09/21 12:21:41;;;;;;;5.20;1.23;;;18.10;99.90;;;;;;5011799;28;20210;-84
2023/09/21 12:24:11;;;;;;;7.10;1.73;;;18.10;99.90;;;;;;5010494;28;20198;-82
2023/09/21 12:26:43;;;;;;;4.97;1.40;;;18.10;99.90;;;;;;4996151;28;20190;-82
2023/09/21 12:29:15;;;;;;;7.93;1.58;;;18.00;99.90;;;;;;5012091;28;20240;-81
2023/09/21 12:31:46;;;;;;;8.32;1.50;;;18.00;99.90;;;;;;5013181;28;20205;-81
2023/09/21 12:34:16;;;;;;;7.40;1.70;;;17.90;99.90;;;;;;5015724;28;20206;-82
2023/09/21 12:36:50;;;;;;;5.80;1.50;;;17.90;99.90;;;;;;5009471;28;20209;-81
2023/09/21 12:39:24;;;;;;;4.32;1.00;;;18.00;99.90;;;;;;5012654;28;20202;-81
2023/09/21 12:41:55;;;;;;;3.80;1.05;;;18.00;99.90;;;;;;5002322;28;20198;-82
2023/09/21 12:44:26;;;;;;;5.30;1.40;;;18.00;99.90;;;;;;5000444;28;20241;-81
2023/09/21 12:47:09;;;;;;;10.05;1.30;;;17.90;99.90;;;;;;5018174;28;20198;-81
2023/09/21 12:49:39;;;;;;;3.17;1.00;;;17.90;99.90;;;;;;4994437;28;20233;-82
2023/09/21 12:52:13;;;;;;;7.32;1.60;;;18.00;99.90;;;;;;4995581;28;20203;-82
2023/09/21 12:54:44;;;;;;;6.68;1.42;;;18.00;99.90;;;;;;5012643;28;20201;-81
2023/09/21 12:57:15;;;;;;;6.15;1.20;;;18.10;99.90;;;;;;5034417;28;20221;-80
2023/09/21 12:59:46;;;;;;;6.45;1.35;;;18.10;99.90;;;;;;5016770;28;20198;-81
2023/09/21 13:02:17;;;;;;;4.20;0.98;;;18.20;99.90;;;;;;5015522;28;20198;-81
2023/09/21 13:04:48;;;;;;;4.60;1.00;;;18.20;99.90;;;;;;5015522;28;20201;-83
2023/09/21 13:07:21;;;;;;;5.93;1.42;;;18.20;99.90;;;;;;5014588;28;20209;-84
2023/09/21 13:09:51;;;;;;;6.72;1.80;;;18.20;99.90;;;;;;5013462;28;20214;-84
2023/09/21 13:12:22;;;;;;;8.32;1.52;;;18.20;99.90;;;;;;5017779;28;20206;-84